Time;durP1;ratioP1;P1;durP2;ratioP2;P2;SDS_P1;SDS_P2;PMS_P1;PMS_P2;Temp;Humidity;BMP_temperature;BMP_pressure;BME280_temperature;BME280_humidity;BME280_pressure;Samples;Min_cycle;Max_cycle;Signal;HPM_P1;HPM_P2
2023/08/29 00:03:59;;;;;;;19.65;4.38;;;;;;;18.36;58.90;99140.50;10233176;28;20503;-82
2023/08/29 00:09:00;;;;;;;19.02;4.60;;;;;;;18.60;59.34;99186.81;10213411;29;20052;-82
2023/08/29 00:14:01;;;;;;;14.35;3.80;;;;;;;18.37;59.88;99144.84;10212849;29;20051;-82
2023/08/29 02:01:00;;;;;;;;;;;;;;;;;;;;;
2023/08/29 02:13:39;;;;;;;;;;;;;;;;;;;;;
2023/08/29 02:19:39;;;;;;;34.92;5.13;;;;;;;21.79;63.69;99341.88;9930104;29;20039;-80
2023/08/29 02:25:57;;;;;;;;;;;;;;;;;;;;;
2023/08/29 02:31:38;;;;;;;13.73;5.13;;;;;;;21.63;63.43;99345.63;9998203;29;20529;-81
2023/08/29 02:37:08;;;;;;;15.98;4.07;;;;;;;19.97;63.84;99119.31;10109402;29;20068;-82
2023/08/29 02:42:57;;;;;;;13.23;3.83;;;;;;;19.78;63.34;99110.84;10124455;29;20095;-81
2023/08/29 02:54:49;;;;;;;12.55;4.05;;;;;;;19.60;63.89;99104.75;10177403;29;20119;-83
2023/08/29 03:00:54;;;;;;;8.23;3.72;;;;;;;19.25;63.31;99053.28;10069487;29;20055;-81
2023/08/29 03:12:16;;;;;;;28.07;4.40;;;;;;;19.65;62.07;99109.38;9938015;29;20606;-82
2023/08/29 03:17:48;;;;;;;15.48;3.65;;;;;;;19.87;62.02;99120.06;10016264;29;20045;-81
2023/08/29 03:23:08;;;;;;;10.80;3.17;;;;;;;19.95;60.70;99106.13;10016099;29;20053;-82
2023/08/29 03:34:52;;;;;;;16.20;3.72;;;;;;;22.08;58.32;99301.66;10088557;29;20409;-80
2023/08/29 03:40:28;;;;;;;13.32;3.25;;;;;;;22.69;57.08;99371.22;10174665;29;20504;-81
2023/08/29 03:46:09;;;;;;;;;;;;;;;;;;;;;
2023/08/29 03:51:36;;;;;;;;;;;;;;;;;;;;;
2023/08/29 03:56:37;;;;;;;14.07;3.15;;;;;;;23.50;53.58;99355.09;10191548;29;20063;-80
2023/08/29 04:01:38;;;;;;;11.60;3.30;;;;;;;22.93;53.60;99270.47;10213185;29;20123;-82
2023/08/29 04:06:42;;;;;;;34.20;3.80;;;;;;;23.51;52.84;99272.69;10196109;29;20048;-82
2023/08/29 04:12:25;;;;;;;12.10;2.70;;;;;;;24.92;50.84;99434.03;10212990;29;20047;-82
2023/08/29 04:17:45;;;;;;;19.05;3.25;;;;;;;22.81;50.54;99131.88;10203354;29;20050;-79
2023/08/29 04:23:07;;;;;;;20.52;3.35;;;;;;;24.51;49.69;99385.50;10211169;29;20068;-81
2023/08/29 04:28:08;;;;;;;11.57;2.75;;;;;;;23.45;51.06;99355.91;10211470;29;20056;-76
2023/08/29 04:33:09;;;;;;;15.27;3.50;;;;;;;23.76;51.18;99399.22;10210572;29;20595;-79
2023/08/29 04:38:09;;;;;;;12.85;3.10;;;;;;;24.03;50.60;99445.75;10211735;29;20090;-79
2023/08/29 04:43:10;;;;;;;22.55;4.07;;;;;;;22.99;51.96;99381.25;10212366;29;20055;-79
2023/08/29 04:48:11;;;;;;;19.42;3.58;;;;;;;22.59;52.69;99411.84;10211232;29;20103;-77
2023/08/29 04:53:12;;;;;;;9.35;3.10;;;;;;;23.07;52.15;99420.50;10193877;29;20106;-78
2023/08/29 04:58:12;;;;;;;10.48;2.72;;;;;;;22.66;52.02;99377.19;10208780;29;20043;-79
2023/08/29 05:03:14;;;;;;;6.47;2.55;;;;;;;22.87;52.34;99420.50;10209775;29;20055;-78
2023/08/29 05:08:15;;;;;;;12.25;2.80;;;;;;;22.76;52.04;99373.66;10211916;29;20134;-79
2023/08/29 05:13:15;;;;;;;14.63;2.70;;;;;;;23.38;51.92;99442.94;10211614;29;20526;-78
2023/08/29 05:18:16;;;;;;;13.30;2.88;;;;;;;22.88;51.71;99390.41;10194572;29;20512;-77
2023/08/29 05:23:17;;;;;;;10.57;2.90;;;;;;;23.28;52.75;99504.50;10211382;29;20058;-76
2023/08/29 05:28:18;;;;;;;10.82;3.05;;;;;;;23.44;51.95;99460.00;10211119;29;20048;-77
2023/08/29 05:33:18;;;;;;;11.10;3.10;;;;;;;24.05;50.99;99470.69;10212100;29;20059;-78
2023/08/29 05:38:20;;;;;;;14.15;3.03;;;;;;;24.51;49.74;99484.03;10194615;29;20169;-78
2023/08/29 05:43:21;;;;;;;8.73;2.72;;;;;;;24.75;48.81;99467.06;10200014;29;20134;-78
2023/08/29 05:48:22;;;;;;;9.50;2.60;;;;;;;24.86;49.16;99541.09;10217617;29;20151;-78
2023/08/29 05:53:23;;;;;;;7.75;3.13;;;;;;;24.19;50.27;99527.06;10218312;29;22120;-78
2023/08/29 05:58:25;;;;;;;14.80;3.30;;;;;;;23.29;50.51;99409.34;10217703;29;20464;-78
2023/08/29 06:03:27;;;;;;;11.97;3.63;;;;;;;24.44;49.44;99501.72;10217118;29;20516;-78
2023/08/29 06:08:29;;;;;;;13.02;3.28;;;;;;;24.00;48.53;99418.38;10201293;29;20055;-78
2023/08/29 06:13:30;;;;;;;11.30;2.90;;;;;;;24.01;47.95;99380.09;10217347;29;20070;-78
2023/08/29 06:18:33;;;;;;;20.30;3.88;;;;;;;23.98;47.69;99369.78;10199902;29;20419;-78
2023/08/29 06:23:34;;;;;;;11.52;3.67;;;;;;;24.78;47.33;99471.91;10200129;29;20039;-78
2023/08/29 06:28:36;;;;;;;10.25;3.10;;;;;;;25.69;46.14;99578.25;10216836;29;20142;-78
2023/08/29 06:33:38;;;;;;;15.32;3.33;;;;;;;25.79;45.79;99580.91;10216653;29;20056;-77
2023/08/29 06:38:39;;;;;;;19.40;7.00;;;;;;;25.93;45.43;99556.53;10215975;29;20051;-79
2023/08/29 06:43:39;;;;;;;13.95;7.63;;;;;;;24.98;45.35;99387.53;10198977;29;20112;-78
2023/08/29 06:48:40;;;;;;;13.30;3.83;;;;;;;24.83;44.70;99355.09;10198282;29;20177;-77
2023/08/29 06:53:41;;;;;;;26.52;6.85;;;;;;;26.28;44.32;99571.66;10213932;29;20060;-78
2023/08/29 06:58:42;;;;;;;17.15;4.18;;;;;;;25.61;44.10;99421.97;10216412;29;20051;-78
2023/08/29 07:03:43;;;;;;;19.77;3.17;;;;;;;26.83;42.63;99588.41;10215867;29;20146;-78
2023/08/29 07:08:44;;;;;;;40.55;4.28;;;;;;;26.86;42.12;99546.94;10215275;29;20603;-78
2023/08/29 07:13:44;;;;;;;32.47;3.83;;;;;;;26.36;41.03;99434.88;10215095;29;20101;-77
2023/08/29 07:18:46;;;;;;;27.02;4.07;;;;;;;25.95;40.27;99385.66;10214334;29;20547;-78
2023/08/29 07:23:47;;;;;;;13.13;3.00;;;;;;;26.63;39.18;99445.13;10214483;29;20519;-79
2023/08/29 07:28:48;;;;;;;22.63;4.03;;;;;;;27.60;37.53;99576.31;10197752;29;20135;-78
2023/08/29 07:33:49;;;;;;;57.85;5.15;;;;;;;27.31;36.37;99492.81;10197293;29;20059;-77
2023/08/29 07:38:49;;;;;;;25.48;3.30;;;;;;;27.44;35.72;99517.69;10197709;29;20083;-76
2023/08/29 07:43:50;;;;;;;21.17;3.42;;;;;;;26.84;35.78;99470.13;10214014;29;20047;-76
2023/08/29 07:48:51;;;;;;;15.90;3.50;;;;;;;27.17;35.44;99497.44;10196352;29;20043;-76
2023/08/29 07:53:52;;;;;;;20.13;3.50;;;;;;;27.21;34.77;99432.19;10213177;29;20091;-75
2023/08/29 07:58:52;;;;;;;17.27;3.25;;;;;;;27.63;34.59;99555.81;10213690;29;20098;-75
2023/08/29 08:03:53;;;;;;;31.08;4.45;;;;;;;27.65;34.86;99570.78;10213080;29;20166;-75
2023/08/29 08:08:54;;;;;;;15.80;4.15;;;;;;;27.61;34.87;99558.03;10213448;29;20448;-75
2023/08/29 08:13:56;;;;;;;41.10;3.95;;;;;;;26.04;34.93;99366.75;10213310;29;20066;-76
2023/08/29 08:18:56;;;;;;;25.38;3.97;;;;;;;27.42;34.51;99577.19;10212359;29;20047;-76
2023/08/29 08:23:57;;;;;;;26.30;3.22;;;;;;;25.73;34.36;99350.81;10212804;29;20443;-76
2023/08/29 08:28:59;;;;;;;27.60;3.22;;;;;;;27.14;34.63;99609.78;10195696;29;20047;-75
2023/08/29 08:34:00;;;;;;;22.98;3.13;;;;;;;26.17;34.20;99500.22;10195828;29;20512;-75
2023/08/29 08:39:01;;;;;;;51.70;4.03;;;;;;;26.17;34.35;99513.00;10212005;29;20134;-76
2023/08/29 08:44:06;;;;;;;20.20;3.45;;;;;;;26.05;33.79;99532.47;10211739;29;20426;-76
2023/08/29 08:49:07;;;;;;;14.32;3.17;;;;;;;25.62;33.98;99507.88;10212051;29;20411;-76
2023/08/29 08:54:10;;;;;;;4.72;2.50;;;;;;;26.25;34.07;99574.16;10212203;29;20051;-76
2023/08/29 08:59:11;;;;;;;14.27;2.73;;;;;;;26.83;33.42;99582.97;10211231;29;20043;-76
2023/08/29 09:04:12;;;;;;;27.05;2.83;;;;;;;26.66;33.00;99579.13;10211108;29;20154;-75
2023/08/29 09:09:22;;;;;;;13.43;2.22;;;;;;;26.90;32.37;99595.41;10212284;29;20505;-78
2023/08/29 09:14:24;;;;;;;10.40;2.03;;;;;;;27.14;32.43;99554.44;10211289;29;20060;-78
2023/08/29 09:19:29;;;;;;;20.47;3.30;;;;;;;26.75;31.77;99495.63;10202835;29;20051;-77
2023/08/29 09:24:34;;;;;;;12.20;2.45;;;;;;;27.48;30.54;99571.34;10202272;29;20059;-78
2023/08/29 09:29:35;;;;;;;12.77;2.50;;;;;;;27.51;31.12;99537.19;10216679;29;20047;-78
2023/08/29 09:34:36;;;;;;;22.15;3.20;;;;;;;27.68;30.55;99548.34;10219537;29;20070;-81
2023/08/29 09:39:37;;;;;;;24.23;3.17;;;;;;;27.54;30.62;99540.13;10218765;29;20044;-77
2023/08/29 09:44:40;;;;;;;9.48;2.53;;;;;;;26.99;30.14;99447.28;10216140;29;20048;-78
2023/08/29 09:49:48;;;;;;;13.27;2.53;;;;;;;28.14;29.94;99613.00;10201096;29;20056;-78
2023/08/29 09:54:52;;;;;;;14.55;2.78;;;;;;;27.82;29.71;99539.38;10205224;29;20102;-78
2023/08/29 09:59:56;;;;;;;7.22;1.90;;;;;;;26.83;29.84;99373.16;10196928;29;20130;-78
2023/08/29 10:05:07;;;;;;;18.42;2.67;;;;;;;28.01;29.08;99564.69;10211041;29;20047;-78
2023/08/29 10:10:09;;;;;;;16.90;2.58;;;;;;;27.92;29.65;99564.56;10200764;29;20043;-78
2023/08/29 10:15:11;;;;;;;15.43;2.40;;;;;;;28.36;30.43;99595.94;10217970;29;20392;-77
2023/08/29 10:20:12;;;;;;;12.35;2.55;;;;;;;27.82;29.58;99493.00;10216821;29;20547;-76
2023/08/29 10:25:13;;;;;;;21.63;2.72;;;;;;;28.25;30.06;99561.75;10216892;29;20055;-76
2023/08/29 10:30:14;;;;;;;8.55;2.40;;;;;;;27.91;28.98;99554.78;10200526;29;20506;-75
2023/08/29 10:35:20;;;;;;;12.23;2.40;;;;;;;27.04;29.70;99379.03;10216829;29;20115;-75
2023/08/29 10:40:21;;;;;;;9.77;2.63;;;;;;;27.97;28.88;99518.06;10217258;29;20055;-76
2023/08/29 10:45:47;;;;;;;9.80;2.05;;;;;;;28.04;28.97;99468.53;10216459;29;20107;-76
2023/08/29 10:51:08;;;;;;;13.93;2.00;;;;;;;28.88;27.86;99562.88;10199519;29;20056;-75
2023/08/29 10:56:09;;;;;;;8.77;2.28;;;;;;;27.99;28.54;99442.13;10216258;29;20055;-76
2023/08/29 11:01:28;;;;;;;6.35;1.90;;;;;;;28.83;28.30;99601.25;10215277;29;20516;-76
2023/08/29 11:06:54;;;;;;;19.92;2.60;;;;;;;28.94;28.51;99591.72;10214895;29;20107;-75
2023/08/29 11:12:09;;;;;;;14.13;2.47;;;;;;;28.54;27.72;99495.03;10198481;29;20051;-75
2023/08/29 11:17:12;;;;;;;12.52;2.30;;;;;;;28.97;27.86;99569.22;10214458;29;20147;-75
2023/08/29 11:22:12;;;;;;;24.10;3.08;;;;;;;27.54;27.78;99351.09;10215541;29;20111;-75
2023/08/29 11:27:16;;;;;;;10.63;2.53;;;;;;;28.51;27.53;99512.88;10197817;29;20086;-76
2023/08/29 11:32:19;;;;;;;20.42;2.65;;;;;;;28.92;28.45;99563.84;10197115;29;20053;-76
2023/08/29 11:37:22;;;;;;;24.07;3.30;;;;;;;28.30;28.01;99463.31;10213646;29;20610;-75
2023/08/29 11:42:25;;;;;;;6.97;2.10;;;;;;;29.09;28.12;99574.16;10214223;29;20500;-75
2023/08/29 11:47:26;;;;;;;8.52;1.90;;;;;;;28.27;27.95;99457.66;10213359;29;20047;-75
2023/08/29 11:52:27;;;;;;;17.50;2.90;;;;;;;28.86;27.84;99552.22;10213216;29;20063;-76
2023/08/29 11:57:31;;;;;;;30.98;3.28;;;;;;;28.92;27.47;99563.06;10213967;29;20099;-76
2023/08/29 12:02:33;;;;;;;8.63;2.15;;;;;;;28.90;27.75;99571.59;10213473;29;20055;-75
2023/08/29 12:07:34;;;;;;;22.27;2.57;;;;;;;27.54;27.65;99365.53;10213303;29;20518;-75
2023/08/29 12:12:36;;;;;;;8.07;2.15;;;;;;;28.43;27.46;99532.72;10196014;29;20126;-75
2023/08/29 12:17:39;;;;;;;7.47;1.73;;;;;;;28.62;26.81;99579.03;10213245;29;20086;-76
2023/08/29 12:22:44;;;;;;;28.88;3.45;;;;;;;28.63;27.12;99551.41;10213046;29;20144;-75
2023/08/29 12:27:46;;;;;;;12.82;1.95;;;;;;;28.83;26.88;99569.25;10213721;29;20055;-76
2023/08/29 12:32:47;;;;;;;15.73;2.30;;;;;;;28.63;26.65;99548.66;10211423;29;20107;-81
2023/08/29 12:37:48;;;;;;;17.52;2.45;;;;;;;28.48;26.91;99529.06;10211643;29;20055;-78
2023/08/29 12:42:51;;;;;;;9.10;1.75;;;;;;;28.64;26.90;99574.88;10212157;29;20047;-77
2023/08/29 12:48:07;;;;;;;16.92;2.30;;;;;;;28.04;26.90;99473.97;10231214;23;20063;-79
2023/08/29 12:53:16;;;;;;;21.20;2.65;;;;;;;27.36;26.93;99366.47;10235813;29;20078;-80
2023/08/29 12:58:17;;;;;;;13.05;1.85;;;;;;;27.30;26.77;99403.94;10249559;29;20206;-82
2023/08/29 13:03:24;;;;;;;28.63;3.22;;;;;;;27.29;26.54;99394.13;10235007;29;20562;-83
2023/08/29 13:08:28;;;;;;;34.55;3.70;;;;;;;27.12;26.70;99395.81;10250937;29;20133;-75
2023/08/29 13:13:32;;;;;;;18.15;2.55;;;;;;;27.94;26.58;99547.88;10251462;29;20078;-77
2023/08/29 13:18:33;;;;;;;23.88;1.85;;;;;;;28.16;26.13;99591.69;10251324;29;20059;-77
2023/08/29 13:23:33;;;;;;;11.93;2.20;;;;;;;27.87;26.37;99542.03;10251356;29;20103;-86
2023/08/29 13:28:34;;;;;;;14.48;2.30;;;;;;;27.75;26.13;99524.19;10251154;29;20039;-79
2023/08/29 13:33:35;;;;;;;19.48;6.80;;;;;;;28.07;25.69;99570.84;10233476;29;20503;-80
2023/08/29 13:38:36;;;;;;;26.85;3.38;;;;;;;27.74;26.19;99516.31;10234330;29;20456;-80
2023/08/29 13:43:39;;;;;;;11.55;2.08;;;;;;;28.02;25.55;99577.22;10233847;29;20122;-81
2023/08/29 13:48:40;;;;;;;16.25;2.42;;;;;;;27.77;25.48;99562.91;10233784;28;20063;-79
2023/08/29 13:53:40;;;;;;;14.93;1.75;;;;;;;27.55;25.70;99551.84;10233463;29;20063;-79
2023/08/29 13:58:41;;;;;;;23.00;2.30;;;;;;;27.51;25.38;99569.94;10250900;29;20039;-80
2023/08/29 14:03:42;;;;;;;34.58;3.10;;;;;;;27.97;25.34;99626.44;10255172;28;20184;-79
2023/08/29 14:08:43;;;;;;;16.20;2.25;;;;;;;26.81;25.78;99464.47;10257492;29;20079;-79
2023/08/29 14:13:44;;;;;;;18.08;2.00;;;;;;;27.45;25.15;99585.56;10256500;29;20058;-80
2023/08/29 14:18:53;;;;;;;9.00;2.10;;;;;;;27.30;25.23;99569.47;10257734;29;20411;-80
2023/08/29 14:30:25;;;;;;;36.22;3.20;;;;;;;25.41;25.64;99322.41;10256009;29;20137;-77
2023/08/29 14:41:49;;;;;;;24.95;2.75;;;;;;;25.49;25.99;99383.50;10251645;29;20086;-78
2023/08/29 14:46:53;;;;;;;28.08;2.92;;;;;;;26.31;25.96;99570.28;10245348;28;20055;-78
2023/08/29 14:52:21;;;;;;;17.15;2.42;;;;;;;26.79;25.32;99654.69;10256168;29;20047;-78
2023/08/29 14:57:22;;;;;;;20.63;2.60;;;;;;;26.19;25.71;99596.00;10255203;29;20098;-80
2023/08/29 15:02:23;;;;;;;23.35;2.70;;;;;;;26.05;25.79;99613.31;10255352;29;20083;-78
2023/08/29 15:07:25;;;;;;;40.75;2.97;;;;;;;25.85;26.17;99614.34;10255953;29;20138;-78
2023/08/29 15:12:26;;;;;;;15.48;2.50;;;;;;;25.32;26.57;99598.72;10254624;28;20051;-78
2023/08/29 15:17:26;;;;;;;18.02;2.25;;;;;;;25.52;25.86;99657.56;10254947;29;20047;-78
2023/08/29 15:22:28;;;;;;;28.92;2.72;;;;;;;24.36;26.22;99516.69;10255117;29;20134;-78
2023/08/29 15:27:30;;;;;;;45.13;3.22;;;;;;;24.70;25.69;99598.25;10254567;29;20063;-78
2023/08/29 15:32:31;;;;;;;43.10;6.00;;;;;;;25.02;25.67;99678.50;10254496;29;20047;-80
2023/08/29 15:37:32;;;;;;;55.33;6.78;;;;;;;24.52;25.75;99642.31;10254117;29;20051;-78
2023/08/29 15:42:33;;;;;;;31.13;9.20;;;;;;;24.23;25.04;99631.25;10254401;29;20134;-79
2023/08/29 15:47:35;;;;;;;50.85;9.18;;;;;;;23.09;25.56;99494.19;10253515;28;20515;-82
2023/08/29 15:52:36;;;;;;;40.72;6.10;;;;;;;24.00;25.27;99684.22;10254063;29;20066;-80
2023/08/29 15:57:37;;;;;;;19.45;3.63;;;;;;;23.77;25.54;99675.53;10254713;29;20059;-81
2023/08/29 16:02:38;;;;;;;37.08;3.25;;;;;;;23.34;25.14;99655.16;10252962;29;20047;-81
2023/08/29 16:07:40;;;;;;;47.13;14.85;;;;;;;21.78;26.14;99464.59;10252843;29;20170;-82
2023/08/29 16:12:42;;;;;;;42.25;17.77;;;;;;;23.20;25.70;99714.47;10251877;29;20569;-81
2023/08/29 16:17:43;;;;;;;21.25;9.82;;;;;;;23.07;25.90;99723.09;10253285;29;20141;-81
2023/08/29 16:22:46;;;;;;;11.05;2.47;;;;;;;22.60;26.05;99703.09;10252017;29;20134;-82
2023/08/29 16:27:47;;;;;;;15.65;2.25;;;;;;;22.46;26.47;99737.09;10251098;28;20477;-84
2023/08/29 16:32:48;;;;;;;12.23;1.63;;;;;;;22.38;26.68;99748.44;10245811;29;20062;-81
2023/08/29 16:37:59;;;;;;;45.85;25.98;;;;;;;22.56;26.35;99812.97;10250753;29;20047;-83
2023/08/29 16:43:02;;;;;;;69.38;32.33;;;;;;;21.81;26.62;99737.16;10250656;29;20102;-82
2023/08/29 18:44:25;;;;;;;3.67;1.42;;;;;;;20.18;28.08;99929.25;10269033;28;19927;-81
2023/08/29 19:08:52;;;;;;;13.63;1.90;;;;;;;19.99;27.74;99923.22;10295505;28;20086;-82
2023/08/29 19:34:20;;;;;;;;;;;;;;;;;;;;;
2023/08/29 19:40:25;;;;;;;7.32;0.98;;;;;;;19.54;28.19;99930.09;10293372;28;20039;-81
